createdAt,value
2022-08-25T00:01:55.923Z,2.50
2022-08-25T00:04:24.103Z,2.50
2022-08-25T00:06:52.248Z,2.70
2022-08-25T00:09:22.877Z,2.83
2022-08-25T00:11:51.198Z,2.42
2022-08-25T00:14:35.496Z,2.62
2022-08-25T00:17:05.752Z,2.70
2022-08-25T00:19:36.857Z,2.50
2022-08-25T00:22:05.114Z,2.30
2022-08-25T00:24:39.152Z,2.35
2022-08-25T00:27:07.540Z,2.58
2022-08-25T00:29:35.944Z,2.22
2022-08-25T00:32:04.327Z,2.40
2022-08-25T00:34:35.577Z,2.62
2022-08-25T00:37:08.816Z,2.70
2022-08-25T00:39:36.945Z,2.35
2022-08-25T00:42:11.714Z,2.12
2022-08-25T00:44:48.872Z,2.70
2022-08-25T00:47:17.210Z,2.35
2022-08-25T00:49:51.562Z,2.60
2022-08-25T00:52:49.740Z,2.30
2022-08-25T00:55:27.229Z,2.47
2022-08-25T00:58:21.659Z,2.50
2022-08-25T01:00:52.312Z,2.30
2022-08-25T01:03:20.655Z,2.50
2022-08-25T01:05:51.929Z,2.37
2022-08-25T01:08:22.305Z,2.30
2022-08-25T01:10:50.602Z,2.50
2022-08-25T01:13:49.340Z,2.12
2022-08-25T01:16:17.481Z,2.58
2022-08-25T01:18:54.035Z,2.45
2022-08-25T01:21:23.672Z,2.50
2022-08-25T01:23:52.138Z,2.60
2022-08-25T01:26:25.125Z,2.60
2022-08-25T01:29:17.845Z,2.65
2022-08-25T01:31:46.321Z,2.53
2022-08-25T01:34:14.287Z,2.75
2022-08-25T01:36:42.656Z,2.70
2022-08-25T01:39:11.468Z,2.40
2022-08-25T01:42:06.766Z,3.05
2022-08-25T01:44:37.104Z,2.30
2022-08-25T01:47:05.289Z,2.40
2022-08-25T01:49:34.057Z,2.42
2022-08-25T01:52:03.998Z,2.58
2022-08-25T01:54:31.870Z,2.70
2022-08-25T01:57:00.104Z,2.30
2022-08-25T01:59:27.929Z,2.53
2022-08-25T02:02:00.185Z,2.50
2022-08-25T02:04:33.335Z,2.72
2022-08-25T02:07:03.103Z,2.60
2022-08-25T02:09:31.013Z,2.60
2022-08-25T02:11:58.838Z,2.60
2022-08-25T02:14:26.627Z,2.53
2022-08-25T02:16:55.331Z,2.40
2022-08-25T02:19:24.750Z,2.70
2022-08-25T02:21:55.908Z,2.87
2022-08-25T02:24:23.674Z,2.42
2022-08-25T02:26:51.748Z,2.67
2022-08-25T02:29:19.953Z,2.72
2022-08-25T02:31:48.119Z,2.50
2022-08-25T02:34:16.383Z,2.47
2022-08-25T02:36:44.946Z,2.58
2022-08-25T02:39:13.401Z,2.53
2022-08-25T02:41:41.314Z,3.00
2022-08-25T02:44:09.472Z,3.30
2022-08-25T02:46:37.593Z,2.97
2022-08-25T02:49:06.766Z,3.05
2022-08-25T02:51:35.362Z,2.75
2022-08-25T02:54:03.745Z,2.53
2022-08-25T02:56:31.914Z,3.03
2022-08-25T02:59:01.273Z,2.62
2022-08-25T03:01:30.235Z,2.65
2022-08-25T03:03:58.305Z,2.80
2022-08-25T03:06:27.391Z,2.50
2022-08-25T03:08:55.813Z,3.03
2022-08-25T03:11:24.295Z,3.33
2022-08-25T03:13:52.422Z,2.92
2022-08-25T03:16:20.594Z,2.50
2022-08-25T03:18:48.608Z,2.60
2022-08-25T03:21:17.134Z,3.03
2022-08-25T03:23:45.928Z,3.80
2022-08-25T03:26:33.742Z,3.08
2022-08-25T03:29:02.364Z,3.15
2022-08-25T03:31:30.464Z,3.10
2022-08-25T03:33:58.323Z,3.53
2022-08-25T03:36:26.726Z,3.03
2022-08-25T03:38:54.751Z,3.60
2022-08-25T03:41:29.094Z,3.25
2022-08-25T03:43:57.839Z,3.25
2022-08-25T03:46:27.827Z,3.10
2022-08-25T03:48:55.883Z,3.17
2022-08-25T03:51:25.074Z,2.60
2022-08-25T03:53:54.057Z,2.72
2022-08-25T03:56:21.881Z,2.85
2022-08-25T03:58:49.903Z,2.92
2022-08-25T04:01:18.322Z,2.90
2022-08-25T04:03:46.764Z,2.78
2022-08-25T04:06:14.970Z,3.22
2022-08-25T04:08:42.840Z,3.00
2022-08-25T04:11:11.501Z,3.22
2022-08-25T04:13:39.367Z,3.20
2022-08-25T04:16:22.490Z,2.80
2022-08-25T04:18:50.786Z,3.22
2022-08-25T04:21:19.511Z,3.10
2022-08-25T04:23:49.202Z,2.87
2022-08-25T04:26:22.346Z,3.30
2022-08-25T04:28:50.629Z,3.28
2022-08-25T04:31:19.567Z,2.92
2022-08-25T04:33:50.079Z,2.75
2022-08-25T04:36:18.262Z,2.83
2022-08-25T04:38:47.251Z,2.97
2022-08-25T04:41:15.945Z,3.00
2022-08-25T04:43:45.126Z,2.80
2022-08-25T04:46:23.963Z,3.22
2022-08-25T04:48:52.929Z,2.58
2022-08-25T04:51:25.011Z,2.70
2022-08-25T04:53:53.114Z,3.22
2022-08-25T04:56:23.522Z,2.80
2022-08-25T04:58:52.379Z,3.10
2022-08-25T05:01:23.526Z,3.45
2022-08-25T05:04:02.982Z,3.53
2022-08-25T05:06:31.410Z,3.50
2022-08-25T05:09:00.264Z,3.45
2022-08-25T05:11:30.050Z,3.30
2022-08-25T05:14:01.935Z,3.20
2022-08-25T05:16:30.278Z,3.12
2022-08-25T05:18:58.307Z,3.75
2022-08-25T05:21:28.704Z,3.17
2022-08-25T05:23:58.679Z,3.67
2022-08-25T05:26:27.600Z,3.30
2022-08-25T05:28:55.879Z,3.40
2022-08-25T05:31:24.574Z,3.50
2022-08-25T05:33:53.048Z,3.50
2022-08-25T05:36:21.366Z,3.97
2022-08-25T05:38:49.239Z,3.60
2022-08-25T05:41:19.526Z,3.47
2022-08-25T05:43:49.866Z,3.55
2022-08-25T05:46:19.060Z,4.25
2022-08-25T05:48:48.434Z,3.58
2022-08-25T05:51:17.038Z,3.33
2022-08-25T05:53:46.322Z,3.42
2022-08-25T05:56:15.448Z,3.60
2022-08-25T05:58:43.802Z,3.65
2022-08-25T06:01:30.759Z,3.80
2022-08-25T06:03:58.665Z,3.70
2022-08-25T06:06:27.506Z,3.75
2022-08-25T06:08:55.364Z,4.10
2022-08-25T06:11:23.325Z,3.78
2022-08-25T06:13:51.194Z,3.78
2022-08-25T06:16:19.751Z,3.60
2022-08-25T06:18:47.570Z,3.25
2022-08-25T06:21:21.543Z,3.80
2022-08-25T06:23:51.430Z,3.40
2022-08-25T06:26:21.773Z,3.78
2022-08-25T06:28:52.333Z,3.95
2022-08-25T06:31:21.528Z,3.80
2022-08-25T06:33:49.468Z,3.37
2022-08-25T06:36:17.252Z,3.50
2022-08-25T06:38:45.624Z,4.12
2022-08-25T06:41:13.839Z,3.90
2022-08-25T06:43:48.143Z,3.75
2022-08-25T06:46:20.261Z,3.90
2022-08-25T06:48:48.702Z,3.67
2022-08-25T06:51:18.091Z,4.12
2022-08-25T06:53:47.443Z,3.30
2022-08-25T06:56:15.931Z,3.72
2022-08-25T06:58:43.766Z,3.70
2022-08-25T07:01:28.030Z,4.20
2022-08-25T07:04:00.657Z,4.12
2022-08-25T07:06:29.819Z,3.75
2022-08-25T07:08:57.634Z,3.92
2022-08-25T07:11:25.493Z,3.75
2022-08-25T07:13:53.767Z,3.60
2022-08-25T07:16:21.933Z,3.42
2022-08-25T07:18:50.309Z,3.10
2022-08-25T07:21:20.656Z,4.28
2022-08-25T07:23:50.939Z,3.80
2022-08-25T07:26:39.327Z,3.58
2022-08-25T07:29:15.831Z,3.30
2022-08-25T07:31:43.771Z,4.18
2022-08-25T07:34:30.288Z,3.30
2022-08-25T07:36:58.141Z,5.30
2022-08-25T07:39:26.494Z,3.70
2022-08-25T07:41:56.791Z,3.72
2022-08-25T07:44:25.016Z,4.60
2022-08-25T07:46:56.156Z,4.05
2022-08-25T07:49:24.570Z,3.85
2022-08-25T07:52:04.390Z,3.78
2022-08-25T07:54:35.142Z,4.18
2022-08-25T07:57:06.661Z,3.58
2022-08-25T07:59:38.920Z,3.70
2022-08-25T08:02:16.077Z,3.78
2022-08-25T08:04:50.425Z,3.50
2022-08-25T08:07:43.145Z,3.37
2022-08-25T08:13:01.044Z,3.42
2022-08-25T08:15:29.891Z,4.10
2022-08-25T08:17:58.175Z,3.75
2022-08-25T08:20:27.248Z,3.72
2022-08-25T08:22:55.214Z,3.70
2022-08-25T08:25:26.548Z,3.55
2022-08-25T08:27:55.615Z,4.05
2022-08-25T08:30:26.468Z,3.97
2022-08-25T08:33:11.265Z,3.92
2022-08-25T08:35:41.117Z,3.72
2022-08-25T08:38:18.492Z,3.50
2022-08-25T08:42:07.703Z,3.60
2022-08-25T08:44:43.793Z,3.47
2022-08-25T08:47:33.517Z,3.20
2022-08-25T08:50:06.151Z,3.70
2022-08-25T08:52:44.856Z,3.78
2022-08-25T08:55:39.237Z,3.60
2022-08-25T08:58:33.119Z,3.87
2022-08-25T09:01:02.919Z,3.15
2022-08-25T09:03:41.033Z,2.95
2022-08-25T09:06:19.650Z,3.45
2022-08-25T09:08:47.525Z,3.30
2022-08-25T09:11:37.799Z,3.12
2022-08-25T09:14:05.629Z,3.53
2022-08-25T09:16:58.431Z,3.75
2022-08-25T09:19:44.964Z,3.22
2022-08-25T09:22:34.031Z,3.28
2022-08-25T09:25:22.027Z,3.42
2022-08-25T09:27:57.547Z,3.40
2022-08-25T09:30:27.595Z,4.10
2022-08-25T09:33:05.178Z,3.40
2022-08-25T09:35:35.761Z,3.40
2022-08-25T09:38:10.559Z,3.12
2022-08-25T09:40:42.530Z,3.60
2022-08-25T09:43:20.694Z,3.70
2022-08-25T09:46:03.621Z,3.62
2022-08-25T09:48:41.040Z,3.40
2022-08-25T09:51:23.035Z,3.53
2022-08-25T09:54:10.686Z,3.60
2022-08-25T09:56:48.167Z,3.28
2022-08-25T09:59:21.268Z,3.47
2022-08-25T10:02:04.528Z,3.47
2022-08-25T10:04:40.301Z,3.40
2022-08-25T10:07:31.069Z,3.22
2022-08-25T10:10:03.821Z,3.00
2022-08-25T10:12:35.053Z,2.62
2022-08-25T10:15:29.126Z,3.37
2022-08-25T10:17:58.735Z,3.42
2022-08-25T10:20:35.339Z,3.17
2022-08-25T10:23:14.568Z,3.20
2022-08-25T10:25:59.201Z,3.00
2022-08-25T10:29:00.816Z,3.05
2022-08-25T10:31:38.003Z,3.00
2022-08-25T10:34:32.482Z,3.28
2022-08-25T10:37:18.974Z,3.35
2022-08-25T10:39:56.279Z,3.30
2022-08-25T10:42:31.895Z,3.70
2022-08-25T10:45:42.375Z,3.12
2022-08-25T10:48:34.568Z,2.90
2022-08-25T10:51:25.689Z,2.53
2022-08-25T10:54:06.265Z,2.83
2022-08-25T10:56:40.327Z,3.22
2022-08-25T10:59:17.820Z,2.50
2022-08-25T11:02:13.049Z,3.17
2022-08-25T11:04:50.289Z,2.83
2022-08-25T11:07:47.548Z,2.83
2022-08-25T11:10:50.422Z,3.03
2022-08-25T11:13:38.907Z,2.78
2022-08-25T11:16:38.235Z,2.95
2022-08-25T11:19:28.114Z,2.70
2022-08-25T11:22:13.711Z,2.87
2022-08-25T11:25:07.951Z,2.67
2022-08-25T11:27:44.446Z,2.72
2022-08-25T11:30:15.868Z,2.75
2022-08-25T11:32:46.500Z,3.10
2022-08-25T11:35:15.510Z,2.80
2022-08-25T11:38:07.101Z,2.40
2022-08-25T11:40:39.950Z,2.45
2022-08-25T11:43:14.204Z,2.80
2022-08-25T11:46:05.228Z,2.42
2022-08-25T11:48:56.216Z,2.47
2022-08-25T11:51:43.352Z,2.40
2022-08-25T11:54:26.416Z,2.40
2022-08-25T11:56:57.956Z,2.40
2022-08-25T11:59:50.536Z,2.28
2022-08-25T12:02:49.986Z,2.37
2022-08-25T12:05:20.494Z,2.20
2022-08-25T12:07:48.244Z,2.28
2022-08-25T12:10:23.587Z,2.22
2022-08-25T12:12:59.777Z,2.37
2022-08-25T12:15:35.927Z,2.30
2022-08-25T12:18:12.975Z,2.03
2022-08-25T12:20:57.317Z,2.22
2022-08-25T12:23:44.904Z,2.42
2022-08-25T12:26:28.507Z,2.20
2022-08-25T12:29:08.237Z,2.30
2022-08-25T12:32:03.197Z,2.00
2022-08-25T12:35:13.069Z,2.10
2022-08-25T12:38:07.451Z,2.20
2022-08-25T12:40:45.405Z,2.28
2022-08-25T12:43:42.231Z,2.12
2022-08-25T12:46:26.915Z,2.37
2022-08-25T12:48:57.749Z,2.35
2022-08-25T12:51:27.754Z,2.10
2022-08-25T12:54:19.095Z,1.98
2022-08-25T12:56:58.961Z,2.05
2022-08-25T12:59:32.581Z,2.60
2022-08-25T13:02:07.062Z,2.20
2022-08-25T13:04:53.629Z,2.65
2022-08-25T13:07:53.733Z,2.00
2022-08-25T13:10:26.893Z,2.08
2022-08-25T13:13:25.245Z,2.25
2022-08-25T13:16:02.639Z,2.35
2022-08-25T13:18:32.990Z,2.05
2022-08-25T13:21:20.059Z,2.40
2022-08-25T13:23:49.966Z,2.50
2022-08-25T13:26:26.367Z,2.70
2022-08-25T13:29:17.629Z,2.40
2022-08-25T13:32:09.488Z,2.60
2022-08-25T13:34:42.818Z,2.40
2022-08-25T13:37:31.269Z,2.70
2022-08-25T13:40:13.891Z,2.58
2022-08-25T13:42:44.287Z,2.33
2022-08-25T13:45:16.712Z,2.12
2022-08-25T13:47:45.750Z,2.20
2022-08-25T13:50:27.183Z,2.17
2022-08-25T13:52:56.507Z,2.15
2022-08-25T13:55:50.898Z,2.20
2022-08-25T13:58:24.214Z,2.42
2022-08-25T14:01:22.805Z,2.10
2022-08-25T14:04:22.138Z,2.05
2022-08-25T14:06:50.204Z,2.00
2022-08-25T14:09:28.078Z,2.08
2022-08-25T14:11:59.636Z,1.70
2022-08-25T14:14:27.348Z,2.28
2022-08-25T14:17:21.922Z,2.20
2022-08-25T14:19:55.527Z,2.30
2022-08-25T14:22:23.297Z,2.35
2022-08-25T14:24:51.087Z,2.03
2022-08-25T14:27:20.353Z,1.85
2022-08-25T14:29:52.593Z,2.10
2022-08-25T14:32:20.683Z,2.12
2022-08-25T14:34:48.442Z,2.17
2022-08-25T14:37:18.276Z,2.00
2022-08-25T14:39:47.143Z,2.35
2022-08-25T14:42:15.596Z,2.25
2022-08-25T14:44:43.451Z,2.30
2022-08-25T14:47:11.229Z,2.10
2022-08-25T14:49:41.553Z,2.08
2022-08-25T14:52:11.191Z,2.10
2022-08-25T14:54:40.720Z,2.45
2022-08-25T14:57:09.192Z,2.20
2022-08-25T14:59:37.013Z,2.40
2022-08-25T15:02:11.054Z,2.35
2022-08-25T15:04:39.274Z,2.30
2022-08-25T15:07:30.356Z,2.05
2022-08-25T15:09:59.250Z,2.00
2022-08-25T15:12:46.561Z,1.98
2022-08-25T15:15:15.480Z,2.25
2022-08-25T15:17:44.680Z,2.40
2022-08-25T15:20:12.706Z,1.87
2022-08-25T15:22:43.219Z,2.00
2022-08-25T15:25:11.831Z,1.90
2022-08-25T15:27:39.634Z,2.10
2022-08-25T15:30:08.040Z,1.92
2022-08-25T15:32:35.768Z,2.10
2022-08-25T15:35:03.669Z,2.15
2022-08-25T15:37:32.542Z,2.00
2022-08-25T15:40:01.010Z,1.90
2022-08-25T15:42:28.977Z,1.73
2022-08-25T15:44:57.234Z,1.70
2022-08-25T15:47:25.336Z,2.00
2022-08-25T15:50:00.734Z,1.67
2022-08-25T15:52:44.549Z,1.60
2022-08-25T15:55:14.716Z,1.75
2022-08-25T15:57:42.536Z,1.62
2022-08-25T16:00:16.583Z,1.98
2022-08-25T16:02:46.401Z,1.70
2022-08-25T16:05:16.358Z,1.60
2022-08-25T16:07:51.542Z,1.70
2022-08-25T16:10:19.844Z,2.00
2022-08-25T16:12:48.155Z,2.08
2022-08-25T16:15:17.196Z,1.85
2022-08-25T16:17:51.060Z,1.77
2022-08-25T16:20:19.449Z,1.92
2022-08-25T16:22:47.786Z,1.90
2022-08-25T16:25:15.905Z,1.80
2022-08-25T16:27:45.266Z,1.92
2022-08-25T16:30:17.462Z,2.00
2022-08-25T16:32:46.027Z,2.47
2022-08-25T16:35:14.447Z,2.30
2022-08-25T16:37:42.717Z,2.45
2022-08-25T16:40:14.602Z,3.03
2022-08-25T16:42:42.594Z,1.98
2022-08-25T16:45:10.717Z,2.00
2022-08-25T16:47:39.112Z,2.22
2022-08-25T16:50:08.684Z,2.25
2022-08-25T16:52:58.279Z,2.45
2022-08-25T16:55:27.672Z,3.97
2022-08-25T16:57:55.641Z,2.20
2022-08-25T17:00:25.924Z,4.90
2022-08-25T17:03:00.352Z,3.37
2022-08-25T17:05:29.838Z,2.42
2022-08-25T17:08:18.808Z,2.00
2022-08-25T17:10:46.829Z,2.08
2022-08-25T17:13:14.764Z,1.92
2022-08-25T17:15:43.878Z,1.87
2022-08-25T17:18:13.878Z,2.10
2022-08-25T17:20:44.452Z,2.00
2022-08-25T17:23:13.069Z,1.77
2022-08-25T17:25:42.921Z,2.00
2022-08-25T17:28:12.092Z,1.77
2022-08-25T17:30:40.446Z,2.17
2022-08-25T17:33:08.286Z,1.98
2022-08-25T17:35:43.044Z,2.12
2022-08-25T17:38:10.976Z,2.37
2022-08-25T17:40:39.053Z,1.90
2022-08-25T17:43:09.027Z,1.98
2022-08-25T17:45:38.119Z,2.00
2022-08-25T17:48:08.214Z,2.10
2022-08-25T17:50:37.218Z,2.60
2022-08-25T17:53:06.703Z,2.30
2022-08-25T17:55:34.923Z,2.42
2022-08-25T17:58:04.152Z,2.47
2022-08-25T18:00:33.414Z,2.15
2022-08-25T18:03:02.972Z,2.30
2022-08-25T18:05:30.885Z,2.10
2022-08-25T18:07:58.718Z,2.53
2022-08-25T18:10:27.248Z,2.53
2022-08-25T18:12:55.333Z,3.33
2022-08-25T18:15:23.198Z,2.90
2022-08-25T18:17:51.544Z,2.75
2022-08-25T18:20:20.601Z,2.58
2022-08-25T18:22:48.396Z,2.85
2022-08-25T18:25:16.798Z,3.08
2022-08-25T18:27:44.764Z,3.20
2022-08-25T18:30:13.158Z,2.78
2022-08-25T18:32:41.669Z,2.72
2022-08-25T18:35:16.255Z,3.20
2022-08-25T18:38:08.750Z,3.03
2022-08-25T18:40:36.905Z,2.78
2022-08-25T18:43:07.032Z,2.83
2022-08-25T18:45:49.073Z,2.80
2022-08-25T18:48:18.223Z,2.78
2022-08-25T18:50:50.610Z,2.85
2022-08-25T18:53:30.706Z,2.85
2022-08-25T18:56:06.151Z,2.62
2022-08-25T18:58:34.148Z,2.62
2022-08-25T19:01:05.128Z,2.60
2022-08-25T19:03:33.104Z,2.60
2022-08-25T19:06:01.232Z,2.60
2022-08-25T19:08:29.689Z,2.92
2022-08-25T19:10:57.663Z,2.80
2022-08-25T19:13:25.547Z,3.30
2022-08-25T19:15:53.673Z,2.97
2022-08-25T19:18:26.190Z,3.05
2022-08-25T19:20:57.459Z,3.53
2022-08-25T19:23:26.991Z,3.70
2022-08-25T19:25:54.775Z,3.50
2022-08-25T19:28:24.026Z,3.87
2022-08-25T19:30:52.146Z,3.42
2022-08-25T19:33:42.731Z,3.65
2022-08-25T19:36:08.468Z,3.97
2022-08-25T19:38:37.130Z,3.97
2022-08-25T19:41:09.421Z,4.03
2022-08-25T19:43:50.592Z,4.47
2022-08-25T19:46:25.740Z,5.03
2022-08-25T19:49:06.944Z,5.20
2022-08-25T19:51:36.558Z,5.28
2022-08-25T19:54:05.394Z,5.25
2022-08-25T19:56:36.477Z,4.85
2022-08-25T19:59:04.903Z,4.72
2022-08-25T20:01:33.023Z,5.18
2022-08-25T20:04:02.031Z,4.78
2022-08-25T20:06:35.382Z,4.85
2022-08-25T20:09:03.274Z,5.12
2022-08-25T20:11:34.334Z,5.20
2022-08-25T20:14:04.013Z,5.12
2022-08-25T20:16:32.033Z,5.05
2022-08-25T20:19:01.366Z,5.07
2022-08-25T20:21:31.718Z,5.62
2022-08-25T20:24:18.306Z,5.25
2022-08-25T20:26:46.348Z,5.18
2022-08-25T20:29:14.205Z,4.87
2022-08-25T20:31:42.060Z,4.53
2022-08-25T20:34:17.448Z,4.65
2022-08-25T20:36:50.237Z,4.72
2022-08-25T20:39:19.086Z,4.50
2022-08-25T20:41:48.263Z,5.10
2022-08-25T20:44:17.323Z,4.32
2022-08-25T20:46:45.654Z,4.75
2022-08-25T20:49:14.779Z,4.20
2022-08-25T20:51:43.007Z,4.12
2022-08-25T20:54:14.107Z,4.40
2022-08-25T20:56:42.658Z,4.65
2022-08-25T20:59:11.652Z,4.40
2022-08-25T21:01:40.555Z,4.78
2022-08-25T21:04:11.033Z,4.97
2022-08-25T21:06:42.346Z,4.47
2022-08-25T21:09:15.626Z,4.40
2022-08-25T21:11:43.885Z,4.30
2022-08-25T21:14:13.894Z,4.35
2022-08-25T21:16:42.222Z,4.65
2022-08-25T21:19:11.076Z,4.35
2022-08-25T21:21:40.108Z,4.60
2022-08-25T21:24:10.044Z,4.70
2022-08-25T21:26:47.610Z,4.68
2022-08-25T21:29:16.847Z,5.10
2022-08-25T21:31:44.692Z,4.72
2022-08-25T21:34:12.909Z,4.70
2022-08-25T21:36:40.985Z,5.28
2022-08-25T21:39:08.849Z,5.15
2022-08-25T21:41:37.280Z,4.95
2022-08-25T21:44:05.490Z,4.97
2022-08-25T21:46:33.578Z,5.28
2022-08-25T21:49:06.120Z,5.07
2022-08-25T21:51:40.940Z,5.40
2022-08-25T21:54:10.706Z,5.07
2022-08-25T21:56:46.210Z,5.40
2022-08-25T21:59:16.055Z,5.60
2022-08-25T22:01:44.000Z,5.60
2022-08-25T22:04:12.425Z,5.20
2022-08-25T22:06:40.228Z,5.37
2022-08-25T22:09:08.886Z,5.45
2022-08-25T22:11:36.769Z,5.57
2022-08-25T22:14:04.680Z,5.45
2022-08-25T22:16:35.916Z,5.70
2022-08-25T22:19:05.174Z,5.43
2022-08-25T22:21:33.822Z,5.50
2022-08-25T22:24:01.816Z,5.35
2022-08-25T22:26:31.629Z,5.62
2022-08-25T22:28:59.929Z,4.65
2022-08-25T22:31:28.573Z,5.10
2022-08-25T22:33:57.711Z,4.90
2022-08-25T22:36:27.944Z,4.87
2022-08-25T22:38:55.898Z,5.28
2022-08-25T22:41:24.277Z,4.82
2022-08-25T22:43:53.304Z,4.32
2022-08-25T22:46:21.768Z,4.62
2022-08-25T22:48:50.368Z,4.87
2022-08-25T22:51:21.148Z,4.62
2022-08-25T22:53:49.605Z,4.07
2022-08-25T22:56:19.626Z,4.25
2022-08-25T22:58:51.798Z,4.28
2022-08-25T23:01:20.840Z,4.15
2022-08-25T23:03:48.747Z,4.43
2022-08-25T23:06:24.440Z,4.87
2022-08-25T23:08:54.236Z,4.75
2022-08-25T23:11:22.452Z,3.97
2022-08-25T23:13:50.380Z,4.12
2022-08-25T23:16:18.269Z,4.25
2022-08-25T23:18:47.907Z,4.60
2022-08-25T23:21:38.195Z,4.45
2022-08-25T23:24:10.749Z,4.50
2022-08-25T23:26:42.683Z,4.47
2022-08-25T23:29:18.784Z,4.30
2022-08-25T23:31:47.786Z,4.53
2022-08-25T23:34:16.456Z,4.75
2022-08-25T23:36:44.809Z,4.85
2022-08-25T23:39:12.581Z,4.68
2022-08-25T23:41:41.174Z,4.50
2022-08-25T23:44:11.677Z,4.20
2022-08-25T23:46:39.829Z,4.30
2022-08-25T23:49:09.333Z,4.60
2022-08-25T23:51:38.565Z,4.00
2022-08-25T23:54:10.632Z,4.40
2022-08-25T23:56:42.343Z,4.40
2022-08-25T23:59:18.756Z,4.28
